North Beach, Maryland
Current Conditions -  °F | °C
As of 3:54 AM on Wednesday 28 Jan 2015 (Local Time) from KNAK Reporting Station
Clear Clear  
Wind Chill: 12°   Ceiling: Unl
Heat Index: 26°   Visibility: 10mi
Dew Point: 12°   Wind: 21mph
Humidity: 55%   Direction: 330°NNW
Pressure: 30.05"   Gusts: 24mph
Location:  38.71°N, 76.53°W
Report Text: KNAK 280854Z AUTO 33018G21KT 10SM CLR M03/M11 A3005 RMK AO2 SLP178 T10331111 51026
Loading
Personal Weather Stations






























Interactive Weather Map New forecast layout! Learn more

10-Day Weather Forecast

Advertisements
Track Severe Weather on mobile